sensor_id;sensor_type;location;lat;lon;timestamp;P1;durP1;ratioP1;P2;durP2;ratioP2
35644;SDS011;21764;52.042;6.830;2022-12-29T00:03:30;3.55;;;2.40;;
35644;SDS011;21764;52.042;6.830;2022-12-29T00:08:30;3.30;;;2.47;;
35644;SDS011;21764;52.042;6.830;2022-12-29T00:13:51;4.82;;;2.50;;
35644;SDS011;21764;52.042;6.830;2022-12-29T00:19:12;3.92;;;2.35;;
35644;SDS011;21764;52.042;6.830;2022-12-29T00:30:29;4.45;;;2.17;;
35644;SDS011;21764;52.042;6.830;2022-12-29T00:35:52;3.80;;;2.50;;
35644;SDS011;21764;52.042;6.830;2022-12-29T00:40:56;2.10;;;1.95;;
35644;SDS011;21764;52.042;6.830;2022-12-29T00:46:22;2.60;;;2.20;;
35644;SDS011;21764;52.042;6.830;2022-12-29T00:51:42;6.53;;;2.78;;
35644;SDS011;21764;52.042;6.830;2022-12-29T00:56:53;4.38;;;2.35;;
35644;SDS011;21764;52.042;6.830;2022-12-29T01:26:12;3.22;;;2.00;;
35644;SDS011;21764;52.042;6.830;2022-12-29T01:32:14;3.67;;;2.95;;
35644;SDS011;21764;52.042;6.830;2022-12-29T01:37:58;4.80;;;3.05;;
35644;SDS011;21764;52.042;6.830;2022-12-29T01:42:59;3.97;;;3.08;;
35644;SDS011;21764;52.042;6.830;2022-12-29T01:48:01;3.70;;;3.40;;
35644;SDS011;21764;52.042;6.830;2022-12-29T01:58:07;8.15;;;3.65;;
35644;SDS011;21764;52.042;6.830;2022-12-29T02:09:11;5.85;;;3.20;;
35644;SDS011;21764;52.042;6.830;2022-12-29T02:14:14;8.02;;;2.90;;
35644;SDS011;21764;52.042;6.830;2022-12-29T02:36:54;5.63;;;2.80;;
35644;SDS011;21764;52.042;6.830;2022-12-29T02:42:35;2.88;;;2.03;;
35644;SDS011;21764;52.042;6.830;2022-12-29T02:48:39;4.13;;;1.73;;
35644;SDS011;21764;52.042;6.830;2022-12-29T03:19:04;2.08;;;1.25;;
35644;SDS011;21764;52.042;6.830;2022-12-29T03:25:17;6.40;;;1.33;;
35644;SDS011;21764;52.042;6.830;2022-12-29T03:30:45;1.73;;;1.30;;
35644;SDS011;21764;52.042;6.830;2022-12-29T03:36:23;3.83;;;1.20;;
35644;SDS011;21764;52.042;6.830;2022-12-29T03:41:30;2.28;;;1.20;;
35644;SDS011;21764;52.042;6.830;2022-12-29T03:46:34;4.97;;;1.40;;
35644;SDS011;21764;52.042;6.830;2022-12-29T03:51:51;3.00;;;1.27;;
35644;SDS011;21764;52.042;6.830;2022-12-29T03:57:19;3.80;;;1.25;;
35644;SDS011;21764;52.042;6.830;2022-12-29T04:03:05;5.63;;;1.20;;
35644;SDS011;21764;52.042;6.830;2022-12-29T04:08:06;5.18;;;1.70;;
35644;SDS011;21764;52.042;6.830;2022-12-29T04:13:22;6.32;;;1.30;;
35644;SDS011;21764;52.042;6.830;2022-12-29T04:18:56;4.15;;;1.27;;
35644;SDS011;21764;52.042;6.830;2022-12-29T04:23:57;4.18;;;1.42;;
35644;SDS011;21764;52.042;6.830;2022-12-29T04:28:58;4.30;;;1.05;;
35644;SDS011;21764;52.042;6.830;2022-12-29T04:33:58;3.72;;;1.30;;
35644;SDS011;21764;52.042;6.830;2022-12-29T04:39:00;4.78;;;1.40;;
35644;SDS011;21764;52.042;6.830;2022-12-29T04:44:00;7.72;;;1.50;;
35644;SDS011;21764;52.042;6.830;2022-12-29T04:49:01;4.65;;;1.60;;
35644;SDS011;21764;52.042;6.830;2022-12-29T04:54:14;5.25;;;1.73;;
35644;SDS011;21764;52.042;6.830;2022-12-29T04:59:49;4.22;;;1.58;;
35644;SDS011;21764;52.042;6.830;2022-12-29T05:04:49;6.53;;;1.20;;
35644;SDS011;21764;52.042;6.830;2022-12-29T05:09:50;4.95;;;1.40;;
35644;SDS011;21764;52.042;6.830;2022-12-29T05:14:51;4.07;;;1.38;;
35644;SDS011;21764;52.042;6.830;2022-12-29T05:19:54;5.97;;;1.20;;
35644;SDS011;21764;52.042;6.830;2022-12-29T05:25:13;7.75;;;1.33;;
35644;SDS011;21764;52.042;6.830;2022-12-29T05:30:30;3.22;;;1.13;;
35644;SDS011;21764;52.042;6.830;2022-12-29T05:35:46;2.60;;;1.10;;
35644;SDS011;21764;52.042;6.830;2022-12-29T05:40:54;9.43;;;1.48;;
35644;SDS011;21764;52.042;6.830;2022-12-29T05:46:21;7.10;;;1.57;;
35644;SDS011;21764;52.042;6.830;2022-12-29T05:51:32;7.82;;;1.73;;
35644;SDS011;21764;52.042;6.830;2022-12-29T05:56:34;7.00;;;1.30;;
35644;SDS011;21764;52.042;6.830;2022-12-29T06:01:51;7.45;;;1.55;;
35644;SDS011;21764;52.042;6.830;2022-12-29T06:06:56;3.22;;;1.00;;
35644;SDS011;21764;52.042;6.830;2022-12-29T06:12:26;13.98;;;1.80;;
35644;SDS011;21764;52.042;6.830;2022-12-29T06:17:31;10.20;;;2.35;;
35644;SDS011;21764;52.042;6.830;2022-12-29T06:22:34;14.57;;;2.10;;
35644;SDS011;21764;52.042;6.830;2022-12-29T06:27:37;17.27;;;2.15;;
35644;SDS011;21764;52.042;6.830;2022-12-29T06:32:53;13.37;;;2.00;;
35644;SDS011;21764;52.042;6.830;2022-12-29T06:37:56;23.73;;;7.20;;
35644;SDS011;21764;52.042;6.830;2022-12-29T06:43:00;14.70;;;1.92;;
35644;SDS011;21764;52.042;6.830;2022-12-29T06:48:31;12.23;;;2.35;;
35644;SDS011;21764;52.042;6.830;2022-12-29T06:53:54;14.35;;;2.20;;
35644;SDS011;21764;52.042;6.830;2022-12-29T06:59:04;11.07;;;2.45;;
35644;SDS011;21764;52.042;6.830;2022-12-29T07:04:35;13.40;;;2.58;;
35644;SDS011;21764;52.042;6.830;2022-12-29T07:09:37;8.07;;;1.73;;
35644;SDS011;21764;52.042;6.830;2022-12-29T07:15:04;13.02;;;2.00;;
35644;SDS011;21764;52.042;6.830;2022-12-29T07:20:08;10.85;;;2.10;;
35644;SDS011;21764;52.042;6.830;2022-12-29T07:25:16;10.07;;;2.30;;
35644;SDS011;21764;52.042;6.830;2022-12-29T07:30:51;7.85;;;1.60;;
35644;SDS011;21764;52.042;6.830;2022-12-29T07:36:26;9.32;;;2.00;;
35644;SDS011;21764;52.042;6.830;2022-12-29T07:41:34;9.50;;;1.48;;
35644;SDS011;21764;52.042;6.830;2022-12-29T07:46:49;11.75;;;3.25;;
35644;SDS011;21764;52.042;6.830;2022-12-29T07:51:55;6.65;;;1.30;;
35644;SDS011;21764;52.042;6.830;2022-12-29T07:57:07;9.30;;;1.95;;
35644;SDS011;21764;52.042;6.830;2022-12-29T08:02:11;11.48;;;1.90;;
35644;SDS011;21764;52.042;6.830;2022-12-29T08:07:13;10.67;;;2.43;;
35644;SDS011;21764;52.042;6.830;2022-12-29T08:12:57;10.53;;;1.73;;
35644;SDS011;21764;52.042;6.830;2022-12-29T08:17:58;12.23;;;1.90;;
35644;SDS011;21764;52.042;6.830;2022-12-29T08:22:58;9.98;;;1.77;;
35644;SDS011;21764;52.042;6.830;2022-12-29T08:28:08;10.25;;;2.08;;
35644;SDS011;21764;52.042;6.830;2022-12-29T08:33:09;8.70;;;1.50;;
35644;SDS011;21764;52.042;6.830;2022-12-29T08:38:11;10.82;;;1.92;;
35644;SDS011;21764;52.042;6.830;2022-12-29T08:43:12;10.80;;;2.95;;
35644;SDS011;21764;52.042;6.830;2022-12-29T08:48:12;12.18;;;2.30;;
35644;SDS011;21764;52.042;6.830;2022-12-29T08:53:13;10.82;;;2.13;;
35644;SDS011;21764;52.042;6.830;2022-12-29T08:58:14;11.13;;;1.95;;
35644;SDS011;21764;52.042;6.830;2022-12-29T09:03:16;8.50;;;2.15;;
35644;SDS011;21764;52.042;6.830;2022-12-29T09:08:17;10.40;;;2.88;;
35644;SDS011;21764;52.042;6.830;2022-12-29T09:13:18;20.27;;;2.55;;
35644;SDS011;21764;52.042;6.830;2022-12-29T09:18:19;16.25;;;3.08;;
35644;SDS011;21764;52.042;6.830;2022-12-29T09:23:19;17.75;;;3.28;;
35644;SDS011;21764;52.042;6.830;2022-12-29T09:28:20;14.48;;;2.30;;
35644;SDS011;21764;52.042;6.830;2022-12-29T09:33:22;10.02;;;2.45;;
35644;SDS011;21764;52.042;6.830;2022-12-29T09:38:24;15.82;;;2.78;;
35644;SDS011;21764;52.042;6.830;2022-12-29T09:49:06;12.95;;;2.05;;
35644;SDS011;21764;52.042;6.830;2022-12-29T09:54:16;12.77;;;1.92;;
35644;SDS011;21764;52.042;6.830;2022-12-29T09:59:41;15.32;;;2.75;;
35644;SDS011;21764;52.042;6.830;2022-12-29T10:04:43;12.85;;;2.58;;
35644;SDS011;21764;52.042;6.830;2022-12-29T10:09:50;13.90;;;2.30;;
35644;SDS011;21764;52.042;6.830;2022-12-29T10:15:14;16.83;;;3.72;;
35644;SDS011;21764;52.042;6.830;2022-12-29T10:25:48;19.08;;;2.40;;
35644;SDS011;21764;52.042;6.830;2022-12-29T10:30:52;13.63;;;2.40;;
35644;SDS011;21764;52.042;6.830;2022-12-29T10:35:54;15.30;;;2.35;;
35644;SDS011;21764;52.042;6.830;2022-12-29T10:41:04;14.63;;;2.65;;
35644;SDS011;21764;52.042;6.830;2022-12-29T10:46:50;12.32;;;2.50;;
35644;SDS011;21764;52.042;6.830;2022-12-29T10:51:42;16.90;;;3.13;;
35644;SDS011;21764;52.042;6.830;2022-12-29T10:56:54;14.38;;;2.47;;
35644;SDS011;21764;52.042;6.830;2022-12-29T11:07:43;14.43;;;2.20;;
35644;SDS011;21764;52.042;6.830;2022-12-29T11:13:11;19.38;;;2.30;;
35644;SDS011;21764;52.042;6.830;2022-12-29T11:23:36;16.95;;;2.67;;
35644;SDS011;21764;52.042;6.830;2022-12-29T11:28:39;11.48;;;2.20;;
35644;SDS011;21764;52.042;6.830;2022-12-29T11:33:47;15.50;;;2.78;;
35644;SDS011;21764;52.042;6.830;2022-12-29T11:38:49;33.22;;;12.70;;
35644;SDS011;21764;52.042;6.830;2022-12-29T11:43:58;14.82;;;3.38;;
35644;SDS011;21764;52.042;6.830;2022-12-29T11:49:03;14.25;;;2.97;;
35644;SDS011;21764;52.042;6.830;2022-12-29T11:54:05;16.40;;;2.50;;
35644;SDS011;21764;52.042;6.830;2022-12-29T12:05:11;16.38;;;2.90;;
35644;SDS011;21764;52.042;6.830;2022-12-29T12:10:32;12.13;;;2.85;;
35644;SDS011;21764;52.042;6.830;2022-12-29T12:26:34;19.02;;;3.47;;
35644;SDS011;21764;52.042;6.830;2022-12-29T12:31:56;18.90;;;4.68;;
35644;SDS011;21764;52.042;6.830;2022-12-29T12:47:24;11.93;;;3.58;;
35644;SDS011;21764;52.042;6.830;2022-12-29T12:57:53;20.95;;;4.13;;
35644;SDS011;21764;52.042;6.830;2022-12-29T13:03:20;20.00;;;3.35;;
35644;SDS011;21764;52.042;6.830;2022-12-29T13:30:15;13.73;;;3.50;;
35644;SDS011;21764;52.042;6.830;2022-12-29T13:40:43;18.75;;;3.50;;
35644;SDS011;21764;52.042;6.830;2022-12-29T13:45:49;16.75;;;3.47;;
35644;SDS011;21764;52.042;6.830;2022-12-29T13:50:58;21.58;;;3.85;;
35644;SDS011;21764;52.042;6.830;2022-12-29T13:56:04;17.90;;;3.72;;
35644;SDS011;21764;52.042;6.830;2022-12-29T14:06:32;19.80;;;4.00;;
35644;SDS011;21764;52.042;6.830;2022-12-29T14:11:40;19.90;;;3.60;;
35644;SDS011;21764;52.042;6.830;2022-12-29T14:16:41;20.52;;;3.90;;
35644;SDS011;21764;52.042;6.830;2022-12-29T14:21:59;20.20;;;3.40;;
35644;SDS011;21764;52.042;6.830;2022-12-29T14:33:00;17.75;;;3.00;;
35644;SDS011;21764;52.042;6.830;2022-12-29T14:43:24;17.15;;;3.60;;
35644;SDS011;21764;52.042;6.830;2022-12-29T14:48:39;14.93;;;3.10;;
35644;SDS011;21764;52.042;6.830;2022-12-29T14:53:52;23.40;;;3.80;;
35644;SDS011;21764;52.042;6.830;2022-12-29T14:59:03;16.15;;;2.40;;
35644;SDS011;21764;52.042;6.830;2022-12-29T15:10:07;5.97;;;1.98;;
35644;SDS011;21764;52.042;6.830;2022-12-29T15:15:24;7.80;;;1.83;;
35644;SDS011;21764;52.042;6.830;2022-12-29T15:20:59;10.85;;;2.65;;
35644;SDS011;21764;52.042;6.830;2022-12-29T15:26:44;9.43;;;2.33;;
35644;SDS011;21764;52.042;6.830;2022-12-29T15:32:40;12.85;;;3.13;;
35644;SDS011;21764;52.042;6.830;2022-12-29T15:37:43;15.07;;;3.10;;
35644;SDS011;21764;52.042;6.830;2022-12-29T15:48:30;13.02;;;2.45;;
35644;SDS011;21764;52.042;6.830;2022-12-29T15:53:32;10.02;;;2.60;;
35644;SDS011;21764;52.042;6.830;2022-12-29T15:59:22;11.90;;;2.42;;
35644;SDS011;21764;52.042;6.830;2022-12-29T16:04:50;16.40;;;3.03;;
35644;SDS011;21764;52.042;6.830;2022-12-29T16:10:27;15.45;;;2.63;;
35644;SDS011;21764;52.042;6.830;2022-12-29T16:15:47;17.25;;;3.35;;
35644;SDS011;21764;52.042;6.830;2022-12-29T16:44:29;17.73;;;3.80;;
35644;SDS011;21764;52.042;6.830;2022-12-29T16:50:28;13.13;;;3.10;;
35644;SDS011;21764;52.042;6.830;2022-12-29T17:31:59;15.27;;;2.55;;
35644;SDS011;21764;52.042;6.830;2022-12-29T19:51:08;16.60;;;3.20;;
35644;SDS011;21764;52.042;6.830;2022-12-29T20:03:03;21.38;;;4.20;;
35644;SDS011;21764;52.042;6.830;2022-12-29T20:26:23;18.15;;;4.05;;
35644;SDS011;21764;52.042;6.830;2022-12-29T21:28:43;24.67;;;4.68;;
